createdAt,value
2022-12-07T00:01:09.956Z,1.20
2022-12-07T00:03:39.272Z,1.20
2022-12-07T00:06:08.891Z,1.10
2022-12-07T00:08:37.611Z,1.10
2022-12-07T00:11:06.574Z,1.10
2022-12-07T00:13:36.882Z,1.10
2022-12-07T00:16:05.666Z,1.10
2022-12-07T00:18:33.818Z,1.10
2022-12-07T00:21:03.103Z,1.10
2022-12-07T00:23:31.039Z,1.10
2022-12-07T00:26:04.767Z,1.00
2022-12-07T00:28:32.564Z,1.00
2022-12-07T00:31:04.984Z,1.00
2022-12-07T00:33:33.437Z,1.00
2022-12-07T00:36:01.986Z,1.00
2022-12-07T00:38:31.480Z,1.00
2022-12-07T00:41:00.126Z,1.00
2022-12-07T00:43:28.310Z,1.00
2022-12-07T00:45:56.562Z,1.00
2022-12-07T00:48:26.946Z,1.10
2022-12-07T00:50:54.935Z,1.10
2022-12-07T00:53:22.866Z,1.00
2022-12-07T00:55:50.731Z,1.10
2022-12-07T00:58:18.546Z,1.10
2022-12-07T01:00:46.422Z,1.10
2022-12-07T01:03:16.540Z,1.10
2022-12-07T01:05:52.887Z,1.10
2022-12-07T01:08:21.278Z,1.20
2022-12-07T01:10:49.765Z,1.10
2022-12-07T01:13:18.317Z,1.10
2022-12-07T01:15:46.820Z,1.10
2022-12-07T01:18:14.630Z,1.10
2022-12-07T01:20:42.603Z,1.10
2022-12-07T01:23:11.792Z,1.10
2022-12-07T01:25:39.678Z,1.10
2022-12-07T01:28:07.516Z,1.10
2022-12-07T01:30:35.359Z,1.10
2022-12-07T01:33:04.025Z,1.10
2022-12-07T01:35:31.864Z,1.20
2022-12-07T01:37:59.689Z,1.10
2022-12-07T01:40:28.883Z,1.10
2022-12-07T01:42:56.740Z,1.10
2022-12-07T01:45:45.336Z,1.10
2022-12-07T01:48:17.408Z,1.10
2022-12-07T01:50:47.593Z,1.10
2022-12-07T01:53:16.375Z,1.10
2022-12-07T01:55:48.935Z,1.10
2022-12-07T01:58:18.361Z,1.10
2022-12-07T02:00:46.567Z,1.10
2022-12-07T02:03:19.883Z,1.10
2022-12-07T02:05:49.260Z,1.10
2022-12-07T02:08:18.893Z,1.10
2022-12-07T02:10:48.558Z,1.10
2022-12-07T02:13:19.445Z,1.00
2022-12-07T02:16:05.447Z,1.00
2022-12-07T02:18:45.588Z,1.00
2022-12-07T02:21:18.368Z,1.10
2022-12-07T02:24:13.289Z,1.10
2022-12-07T02:27:06.936Z,1.10
2022-12-07T02:29:39.704Z,1.10
2022-12-07T02:32:14.399Z,1.10
2022-12-07T02:34:50.696Z,1.10
2022-12-07T02:37:36.729Z,1.10
2022-12-07T02:40:10.948Z,1.10
2022-12-07T02:42:43.612Z,1.10
2022-12-07T02:45:16.901Z,1.10
2022-12-07T02:47:46.815Z,1.10
2022-12-07T02:50:14.764Z,1.10
2022-12-07T02:52:42.561Z,1.10
2022-12-07T02:55:10.912Z,1.10
2022-12-07T02:57:55.597Z,1.00
2022-12-07T03:00:25.221Z,1.00
2022-12-07T03:02:57.569Z,1.00
2022-12-07T03:06:00.946Z,1.00
2022-12-07T03:08:37.295Z,1.00
2022-12-07T03:11:08.328Z,1.00
2022-12-07T03:13:41.419Z,1.00
2022-12-07T03:16:17.001Z,1.00
2022-12-07T03:18:50.508Z,1.00
2022-12-07T03:21:22.195Z,1.00
2022-12-07T03:23:55.296Z,1.00
2022-12-07T03:26:26.606Z,1.00
2022-12-07T03:28:59.922Z,0.90
2022-12-07T03:31:33.513Z,1.00
2022-12-07T03:34:08.702Z,0.90
2022-12-07T03:36:44.261Z,0.90
2022-12-07T03:39:29.087Z,0.90
2022-12-07T03:41:57.961Z,0.90
2022-12-07T03:44:26.213Z,0.80
2022-12-07T03:47:04.419Z,0.90
2022-12-07T03:49:36.981Z,0.90
2022-12-07T03:52:14.387Z,0.90
2022-12-07T03:54:48.281Z,0.80
2022-12-07T03:57:16.410Z,0.90
2022-12-07T03:59:44.919Z,0.90
2022-12-07T04:02:15.733Z,0.90
2022-12-07T04:04:45.204Z,0.90
2022-12-07T04:07:13.887Z,0.90
2022-12-07T04:09:41.693Z,0.80
2022-12-07T04:12:09.810Z,0.80
2022-12-07T04:14:37.777Z,0.70
2022-12-07T04:17:05.636Z,0.60
2022-12-07T04:19:36.034Z,0.60
2022-12-07T04:22:05.537Z,0.60
2022-12-07T04:24:34.832Z,0.60
2022-12-07T04:27:02.738Z,0.60
2022-12-07T04:29:30.546Z,0.60
2022-12-07T04:31:58.454Z,0.60
2022-12-07T04:34:26.332Z,0.60
2022-12-07T04:36:55.517Z,0.60
2022-12-07T04:39:25.610Z,0.60
2022-12-07T04:41:53.723Z,0.70
2022-12-07T04:44:22.548Z,0.70
2022-12-07T04:46:51.111Z,0.70
2022-12-07T04:49:19.631Z,0.60
2022-12-07T04:51:49.219Z,0.70
2022-12-07T04:54:19.029Z,0.60
2022-12-07T04:56:47.000Z,0.60
2022-12-07T04:59:15.884Z,0.60
2022-12-07T05:01:44.009Z,0.60
2022-12-07T05:04:12.081Z,0.60
2022-12-07T05:06:39.937Z,0.60
2022-12-07T05:09:07.788Z,0.60
2022-12-07T05:11:42.948Z,0.60
2022-12-07T05:14:14.912Z,0.50
2022-12-07T05:16:43.696Z,0.50
2022-12-07T05:19:12.289Z,0.50
2022-12-07T05:21:41.297Z,0.50
2022-12-07T05:24:10.452Z,0.50
2022-12-07T05:26:39.663Z,0.50
2022-12-07T05:29:07.738Z,0.50
2022-12-07T05:31:35.741Z,0.50
2022-12-07T05:34:03.696Z,0.50
2022-12-07T05:36:32.764Z,0.40
2022-12-07T05:39:01.172Z,0.40
2022-12-07T05:41:46.908Z,0.40
2022-12-07T05:44:16.121Z,0.30
2022-12-07T05:46:44.215Z,0.20
2022-12-07T05:49:12.150Z,0.20
2022-12-07T05:51:40.076Z,0.10
2022-12-07T05:54:07.937Z,0.00
2022-12-07T05:56:35.785Z,0.00
2022-12-07T05:59:21.282Z,-0.10
2022-12-07T06:01:50.805Z,-0.20
2022-12-07T06:04:19.203Z,-0.20
2022-12-07T06:06:47.036Z,-0.30
2022-12-07T06:09:15.620Z,-0.40
2022-12-07T06:12:00.838Z,-0.40
2022-12-07T06:14:28.631Z,-0.50
2022-12-07T06:20:44.872Z,-0.70
2022-12-07T06:23:12.696Z,-0.70
2022-12-07T06:25:40.493Z,-0.80
2022-12-07T06:28:08.314Z,-0.90
2022-12-07T06:30:36.110Z,-1.00
2022-12-07T06:33:03.929Z,-1.00
2022-12-07T06:35:31.726Z,-1.10
2022-12-07T06:38:00.892Z,-1.10
2022-12-07T06:40:28.742Z,-1.20
2022-12-07T06:42:56.533Z,-1.20
2022-12-07T06:45:24.379Z,-1.30
2022-12-07T06:47:52.153Z,-1.30
2022-12-07T06:50:20.024Z,-1.40
2022-12-07T06:52:47.827Z,-1.40
2022-12-07T06:55:17.105Z,-1.50
2022-12-07T06:57:44.924Z,-1.50
2022-12-07T07:00:21.289Z,-1.60
2022-12-07T07:02:50.003Z,-1.60
2022-12-07T07:05:17.842Z,-1.70
2022-12-07T07:08:20.138Z,-1.70
2022-12-07T07:10:34.819Z,-1.70
2022-12-07T07:13:02.806Z,-1.70
2022-12-07T07:15:30.594Z,-1.80
2022-12-07T07:18:00.685Z,-1.70
2022-12-07T07:20:32.376Z,-1.70
2022-12-07T07:23:00.125Z,-1.70
2022-12-07T07:25:27.947Z,-1.70
2022-12-07T07:27:57.082Z,-1.70
2022-12-07T07:30:24.987Z,-1.60
2022-12-07T07:32:52.883Z,-1.50
2022-12-07T07:35:20.674Z,-1.40
2022-12-07T07:37:48.463Z,-1.20
2022-12-07T07:40:16.357Z,-1.20
2022-12-07T07:42:44.118Z,-1.00
2022-12-07T07:45:13.541Z,-0.90
2022-12-07T07:47:41.329Z,-0.80
2022-12-07T07:50:09.802Z,-0.80
2022-12-07T07:52:37.670Z,-0.80
2022-12-07T07:55:06.474Z,-0.70
2022-12-07T07:57:34.230Z,-0.50
2022-12-07T08:00:02.270Z,-0.40
2022-12-07T08:02:31.897Z,-0.40
2022-12-07T08:04:59.781Z,-0.40
2022-12-07T08:07:28.806Z,-0.40
2022-12-07T08:09:56.557Z,-0.40
2022-12-07T08:12:24.320Z,-0.40
2022-12-07T08:14:52.414Z,-0.30
2022-12-07T08:17:20.203Z,-0.10
2022-12-07T08:19:49.317Z,0.00
2022-12-07T08:22:17.116Z,0.10
2022-12-07T08:24:44.954Z,0.10
2022-12-07T08:27:12.799Z,0.10
2022-12-07T08:29:40.576Z,0.00
2022-12-07T08:32:09.929Z,0.00
2022-12-07T08:34:37.981Z,0.00
2022-12-07T08:37:07.124Z,0.10
2022-12-07T08:39:34.885Z,0.20
2022-12-07T08:42:02.694Z,0.20
2022-12-07T08:44:30.490Z,0.20
2022-12-07T08:47:01.003Z,0.20
2022-12-07T08:49:33.626Z,0.20
2022-12-07T08:52:01.433Z,0.30
2022-12-07T08:54:30.992Z,0.40
2022-12-07T08:56:59.920Z,0.40
2022-12-07T08:59:29.721Z,0.50
2022-12-07T09:01:57.680Z,0.50
2022-12-07T09:04:25.503Z,0.50
2022-12-07T09:06:53.306Z,0.60
2022-12-07T09:09:21.213Z,0.80
2022-12-07T09:11:50.370Z,0.80
2022-12-07T09:14:18.244Z,0.90
2022-12-07T09:16:46.051Z,1.10
2022-12-07T09:19:14.218Z,1.10
2022-12-07T09:21:42.084Z,1.10
2022-12-07T09:24:10.211Z,1.00
2022-12-07T09:26:40.205Z,1.10
2022-12-07T09:29:09.506Z,1.30
2022-12-07T09:31:39.350Z,1.30
2022-12-07T09:34:08.252Z,1.40
2022-12-07T09:36:36.280Z,1.50
2022-12-07T09:39:05.541Z,1.70
2022-12-07T09:41:34.191Z,1.90
2022-12-07T09:44:06.893Z,1.80
2022-12-07T09:46:40.407Z,1.80
2022-12-07T09:49:14.239Z,1.80
2022-12-07T09:51:42.141Z,2.00
2022-12-07T09:54:14.257Z,2.10
2022-12-07T09:56:42.280Z,2.20
2022-12-07T09:59:17.027Z,2.40
2022-12-07T10:01:49.141Z,2.80
2022-12-07T10:04:20.348Z,2.80
2022-12-07T10:06:48.961Z,2.70
2022-12-07T10:09:18.652Z,2.60
2022-12-07T10:12:07.707Z,2.90
2022-12-07T10:15:06.431Z,3.30
2022-12-07T10:17:37.032Z,3.50
2022-12-07T10:20:16.815Z,3.80
2022-12-07T10:23:01.302Z,4.20
2022-12-07T10:25:32.901Z,4.10
2022-12-07T10:28:12.881Z,4.20
2022-12-07T10:30:53.575Z,4.10
2022-12-07T10:33:35.387Z,4.10
2022-12-07T10:36:18.609Z,4.10
2022-12-07T10:38:48.275Z,4.30
2022-12-07T10:41:16.090Z,3.90
2022-12-07T10:43:52.592Z,3.90
2022-12-07T10:46:48.775Z,3.60
2022-12-07T10:49:38.536Z,3.60
2022-12-07T10:52:17.835Z,3.70
2022-12-07T10:54:53.093Z,4.10
2022-12-07T10:57:42.203Z,4.30
2022-12-07T11:00:17.822Z,4.20
2022-12-07T11:03:01.816Z,4.30
2022-12-07T11:05:39.524Z,4.40
2022-12-07T11:08:16.906Z,4.60
2022-12-07T11:10:52.928Z,4.50
2022-12-07T11:13:31.619Z,4.40
2022-12-07T11:16:31.098Z,4.40
2022-12-07T11:19:17.649Z,4.50
2022-12-07T11:21:56.190Z,4.70
2022-12-07T11:24:30.862Z,4.70
2022-12-07T11:27:11.780Z,4.70
2022-12-07T11:30:04.321Z,4.70
2022-12-07T11:32:48.716Z,4.80
2022-12-07T11:35:26.523Z,5.00
2022-12-07T11:38:01.180Z,4.80
2022-12-07T11:40:35.505Z,4.60
2022-12-07T11:43:07.324Z,4.50
2022-12-07T11:45:36.873Z,5.00
2022-12-07T11:48:08.406Z,5.10
2022-12-07T11:50:41.913Z,4.70
2022-12-07T11:53:19.394Z,5.00
2022-12-07T11:55:54.657Z,5.10
2022-12-07T11:58:42.249Z,5.20
2022-12-07T12:01:26.217Z,5.40
2022-12-07T12:03:58.641Z,5.40
2022-12-07T12:06:26.459Z,5.00
2022-12-07T12:15:07.841Z,5.00
2022-12-07T12:17:56.635Z,4.80
2022-12-07T12:20:29.041Z,4.90
2022-12-07T12:23:02.146Z,4.70
2022-12-07T12:25:38.024Z,4.90
2022-12-07T12:28:06.321Z,4.50
2022-12-07T12:30:36.868Z,4.30
2022-12-07T12:33:07.769Z,4.10
2022-12-07T12:35:37.444Z,4.20
2022-12-07T12:38:30.610Z,4.10
2022-12-07T12:40:59.873Z,4.10
2022-12-07T12:43:49.904Z,3.80
2022-12-07T12:46:52.364Z,3.80
2022-12-07T12:49:43.964Z,3.80
2022-12-07T12:52:56.614Z,3.90
2022-12-07T12:55:46.849Z,3.90
2022-12-07T12:58:38.031Z,3.70
2022-12-07T13:01:43.169Z,3.60
2022-12-07T13:04:38.605Z,3.60
2022-12-07T13:07:06.808Z,3.80
2022-12-07T13:09:37.174Z,3.80
2022-12-07T13:12:07.607Z,3.80
2022-12-07T13:14:58.423Z,3.90
2022-12-07T13:18:02.504Z,3.90
2022-12-07T13:20:48.352Z,3.90
2022-12-07T13:23:20.644Z,4.10
2022-12-07T13:25:56.408Z,4.00
2022-12-07T13:28:27.845Z,4.10
2022-12-07T13:31:11.823Z,4.00
2022-12-07T13:33:39.759Z,3.90
2022-12-07T13:36:18.426Z,3.80
2022-12-07T13:38:55.297Z,3.70
2022-12-07T13:41:24.813Z,3.60
2022-12-07T13:44:05.050Z,3.50
2022-12-07T13:46:44.836Z,3.60
2022-12-07T13:49:20.393Z,3.50
2022-12-07T13:51:48.208Z,3.30
2022-12-07T13:54:16.352Z,3.40
2022-12-07T13:56:44.716Z,3.40
2022-12-07T13:59:17.986Z,3.40
2022-12-07T14:01:50.060Z,3.50
2022-12-07T14:04:41.839Z,3.60
2022-12-07T14:07:23.283Z,3.70
2022-12-07T14:09:59.104Z,3.70
2022-12-07T14:12:28.322Z,3.50
2022-12-07T14:14:57.080Z,3.40
2022-12-07T14:17:28.220Z,3.30
2022-12-07T14:19:58.319Z,3.20
2022-12-07T14:22:29.256Z,3.10
2022-12-07T14:25:02.319Z,3.00
2022-12-07T14:27:35.631Z,3.00
2022-12-07T14:30:04.363Z,2.80
2022-12-07T14:32:36.620Z,2.90
2022-12-07T14:35:11.426Z,2.80
2022-12-07T14:37:40.370Z,2.80
2022-12-07T14:40:09.420Z,2.80
2022-12-07T14:42:37.705Z,2.80
2022-12-07T14:45:06.164Z,2.70
2022-12-07T14:50:23.801Z,2.70
2022-12-07T14:55:44.443Z,2.60
2022-12-07T14:58:15.674Z,2.50
2022-12-07T15:00:44.230Z,2.40
2022-12-07T15:03:14.298Z,2.40
2022-12-07T15:05:43.358Z,2.40
2022-12-07T15:08:12.369Z,2.30
2022-12-07T15:10:41.044Z,2.30
2022-12-07T15:13:26.686Z,2.30
2022-12-07T15:15:56.121Z,2.20
2022-12-07T15:18:26.272Z,2.30
2022-12-07T15:20:54.105Z,2.20
2022-12-07T15:23:21.892Z,2.20
2022-12-07T15:25:50.747Z,2.20
2022-12-07T15:28:18.851Z,2.20
2022-12-07T15:30:47.454Z,2.10
2022-12-07T15:33:15.640Z,2.10
2022-12-07T15:35:46.021Z,2.00
2022-12-07T15:38:13.929Z,2.10
2022-12-07T15:40:41.770Z,2.00
2022-12-07T15:43:31.622Z,2.00
2022-12-07T15:45:58.887Z,2.00
2022-12-07T15:48:28.652Z,2.00
2022-12-07T15:51:05.301Z,1.90
2022-12-07T15:53:33.243Z,1.90
2022-12-07T15:56:01.013Z,1.90
2022-12-07T15:58:29.160Z,1.90
2022-12-07T16:00:56.958Z,1.90
2022-12-07T16:03:24.824Z,1.90
2022-12-07T16:05:54.012Z,1.90
2022-12-07T16:08:23.230Z,1.90
2022-12-07T16:10:51.095Z,1.90
2022-12-07T16:13:20.198Z,1.80
2022-12-07T16:15:48.121Z,1.80
2022-12-07T16:18:16.058Z,1.80
2022-12-07T16:20:43.879Z,1.80
2022-12-07T16:23:11.657Z,1.80
2022-12-07T16:25:40.798Z,1.80
2022-12-07T16:28:09.017Z,1.80
2022-12-07T16:30:36.843Z,1.80
2022-12-07T16:33:04.939Z,1.80
2022-12-07T16:35:32.710Z,1.80
2022-12-07T16:38:00.479Z,1.90
2022-12-07T16:40:28.242Z,1.80
2022-12-07T16:42:57.540Z,1.80
2022-12-07T16:45:25.597Z,1.80
2022-12-07T16:47:53.496Z,1.80
2022-12-07T16:50:21.507Z,1.80
2022-12-07T16:52:49.350Z,1.70
2022-12-07T16:55:17.201Z,1.80
2022-12-07T16:57:45.025Z,1.80
2022-12-07T17:00:15.838Z,1.70
2022-12-07T17:02:43.628Z,1.70
2022-12-07T17:05:11.410Z,1.60
2022-12-07T17:07:39.530Z,1.60
2022-12-07T17:10:08.651Z,1.60
2022-12-07T17:12:36.469Z,1.50
2022-12-07T17:15:18.752Z,1.50
2022-12-07T17:17:52.765Z,1.50
2022-12-07T17:20:21.517Z,1.40
2022-12-07T17:22:49.828Z,1.40
2022-12-07T17:25:18.809Z,1.30
2022-12-07T17:27:48.003Z,1.30
2022-12-07T17:30:16.488Z,1.30
2022-12-07T17:32:44.300Z,1.10
2022-12-07T17:35:13.422Z,1.10
2022-12-07T17:37:42.899Z,1.10
2022-12-07T17:40:13.670Z,1.10
2022-12-07T17:42:46.333Z,1.00
2022-12-07T17:45:14.151Z,0.90
2022-12-07T17:47:42.132Z,0.90
2022-12-07T17:50:11.439Z,0.80
2022-12-07T17:52:59.297Z,0.80
2022-12-07T17:55:27.105Z,0.70
2022-12-07T17:57:55.004Z,0.80
2022-12-07T18:00:23.108Z,0.80
2022-12-07T18:02:51.096Z,0.80
2022-12-07T18:05:19.030Z,0.80
2022-12-07T18:07:48.316Z,0.80
2022-12-07T18:10:16.201Z,0.80
2022-12-07T18:12:48.843Z,0.90
2022-12-07T18:15:19.674Z,0.90
2022-12-07T18:17:47.552Z,0.90
2022-12-07T18:20:15.406Z,0.90
2022-12-07T18:22:43.218Z,0.90
2022-12-07T18:25:12.448Z,0.80
2022-12-07T18:27:40.912Z,0.80
2022-12-07T18:30:10.102Z,0.80
2022-12-07T18:32:37.899Z,0.80
2022-12-07T18:35:06.643Z,0.80
2022-12-07T18:37:34.536Z,0.80
2022-12-07T18:40:02.393Z,0.80
2022-12-07T18:42:31.748Z,0.80
2022-12-07T18:44:59.527Z,0.80
2022-12-07T18:47:27.319Z,0.70
2022-12-07T18:49:55.157Z,0.80
2022-12-07T18:52:22.952Z,0.80
2022-12-07T18:54:50.811Z,0.70
2022-12-07T18:57:18.598Z,0.70
2022-12-07T18:59:48.120Z,0.70
2022-12-07T19:02:16.484Z,0.70
2022-12-07T19:04:44.578Z,0.70
2022-12-07T19:07:12.814Z,0.70
2022-12-07T19:09:40.644Z,0.70
2022-12-07T19:12:10.944Z,0.70
2022-12-07T19:14:39.348Z,0.80
2022-12-07T19:17:11.889Z,0.80
2022-12-07T19:19:42.036Z,0.80
2022-12-07T19:22:11.309Z,0.70
2022-12-07T19:24:39.757Z,0.70
2022-12-07T19:27:08.925Z,0.70
2022-12-07T19:29:36.718Z,0.70
2022-12-07T19:32:08.654Z,0.70
2022-12-07T19:34:38.310Z,0.70
2022-12-07T19:37:06.752Z,0.70
2022-12-07T19:39:34.702Z,0.70
2022-12-07T19:42:02.714Z,0.70
2022-12-07T19:44:32.266Z,0.70
2022-12-07T19:47:04.879Z,0.60
2022-12-07T19:49:34.839Z,0.60
2022-12-07T19:52:06.537Z,0.50
2022-12-07T19:54:36.002Z,0.50
2022-12-07T19:57:05.447Z,0.50
2022-12-07T19:59:34.071Z,0.50
2022-12-07T20:02:02.070Z,0.50
2022-12-07T20:04:35.307Z,0.50
2022-12-07T20:07:04.555Z,0.50
2022-12-07T20:09:32.409Z,0.40
2022-12-07T20:12:18.018Z,0.50
2022-12-07T20:14:45.794Z,0.40
2022-12-07T20:17:13.625Z,0.40
2022-12-07T20:19:41.729Z,0.40
2022-12-07T20:22:10.897Z,0.40
2022-12-07T20:24:38.700Z,0.30
2022-12-07T20:27:07.125Z,0.40
2022-12-07T20:29:35.023Z,0.40
2022-12-07T20:32:02.956Z,0.40
2022-12-07T20:34:30.849Z,0.40
2022-12-07T20:36:58.663Z,0.40
2022-12-07T20:39:27.814Z,0.40
2022-12-07T20:42:13.356Z,0.40
2022-12-07T20:44:41.342Z,0.30
2022-12-07T20:47:09.121Z,0.30
2022-12-07T20:49:37.076Z,0.30
2022-12-07T20:52:05.334Z,0.30
2022-12-07T20:54:34.594Z,0.30
2022-12-07T20:57:02.406Z,0.30
2022-12-07T20:59:30.492Z,0.30
2022-12-07T21:01:58.371Z,0.30
2022-12-07T21:04:26.230Z,0.30
2022-12-07T21:06:54.152Z,0.30
2022-12-07T21:09:26.743Z,0.20
2022-12-07T21:11:55.973Z,0.30
2022-12-07T21:14:24.110Z,0.20
2022-12-07T21:16:51.926Z,0.20
2022-12-07T21:19:19.677Z,0.20
2022-12-07T21:21:47.496Z,0.20
2022-12-07T21:24:15.418Z,0.20
2022-12-07T21:26:43.218Z,0.10
2022-12-07T21:29:12.367Z,0.10
2022-12-07T21:31:40.241Z,0.10
2022-12-07T21:34:08.255Z,0.00
2022-12-07T21:36:36.889Z,0.00
2022-12-07T21:39:05.609Z,0.00
2022-12-07T21:41:35.389Z,0.00
2022-12-07T21:44:06.307Z,0.00
2022-12-07T21:46:35.869Z,0.00
2022-12-07T21:49:05.715Z,0.00
2022-12-07T21:51:33.809Z,0.00
2022-12-07T21:54:02.533Z,0.00
2022-12-07T21:56:32.115Z,0.00
2022-12-07T21:59:01.933Z,0.00
2022-12-07T22:01:35.433Z,0.00
2022-12-07T22:04:06.663Z,-0.10
2022-12-07T22:06:36.463Z,-0.10
2022-12-07T22:09:05.214Z,-0.10
2022-12-07T22:11:33.188Z,-0.20
2022-12-07T22:14:18.247Z,-0.20
2022-12-07T22:16:46.095Z,-0.10
2022-12-07T22:19:15.217Z,-0.20
2022-12-07T22:21:43.050Z,-0.10
2022-12-07T22:24:12.905Z,-0.10
2022-12-07T22:26:40.891Z,-0.10
2022-12-07T22:29:08.715Z,-0.20
2022-12-07T22:31:38.029Z,-0.20
2022-12-07T22:34:05.918Z,-0.20
2022-12-07T22:36:35.122Z,-0.20
2022-12-07T22:39:02.961Z,-0.20
2022-12-07T22:41:32.651Z,-0.30
2022-12-07T22:44:01.147Z,-0.30
2022-12-07T22:46:29.646Z,-0.30
2022-12-07T22:48:57.500Z,-0.30
2022-12-07T22:51:26.739Z,-0.30
2022-12-07T22:53:56.423Z,-0.30
2022-12-07T22:56:24.245Z,-0.30
2022-12-07T22:58:52.221Z,-0.30
2022-12-07T23:01:21.542Z,-0.30
2022-12-07T23:03:50.062Z,-0.30
2022-12-07T23:06:20.251Z,-0.20
2022-12-07T23:08:48.658Z,-0.30
2022-12-07T23:11:45.923Z,-0.40
2022-12-07T23:14:15.549Z,-0.50
2022-12-07T23:16:43.793Z,-0.50
2022-12-07T23:19:11.808Z,-0.60
2022-12-07T23:21:40.402Z,-0.70
2022-12-07T23:24:09.525Z,-0.70
2022-12-07T23:26:38.655Z,-0.60
2022-12-07T23:29:06.441Z,-0.60
2022-12-07T23:31:35.366Z,-0.60
2022-12-07T23:34:03.178Z,-0.60
2022-12-07T23:36:31.282Z,-0.60
2022-12-07T23:39:00.102Z,-0.60
2022-12-07T23:41:29.656Z,-0.60
2022-12-07T23:44:00.203Z,-0.60
2022-12-07T23:46:30.492Z,-0.60
2022-12-07T23:48:59.822Z,-0.60
2022-12-07T23:51:27.713Z,-0.70
2022-12-07T23:53:55.949Z,-0.70
2022-12-07T23:56:25.950Z,-0.60
2022-12-07T23:58:54.603Z,-0.70
